sensor_id;sensor_type;location;lat;lon;timestamp;pressure;altitude;pressure_sealevel;temperature;humidity
50087;BME280;35967;50.718;7.050;2023-12-22T00:03:28;99401.66;;;5.81;100.00
50087;BME280;35967;50.718;7.050;2023-12-22T00:13:31;99382.47;;;6.01;100.00
50087;BME280;35967;50.718;7.050;2023-12-22T00:23:37;99524.03;;;5.01;100.00
50087;BME280;35967;50.718;7.050;2023-12-22T00:33:40;99489.84;;;4.63;100.00
50087;BME280;35967;50.718;7.050;2023-12-22T00:43:45;99507.50;;;4.74;100.00
50087;BME280;35967;50.718;7.050;2023-12-22T00:53:48;99509.78;;;4.91;100.00
50087;BME280;35967;50.718;7.050;2023-12-22T01:03:53;99521.56;;;4.97;100.00
50087;BME280;35967;50.718;7.050;2023-12-22T01:13:56;99517.16;;;5.05;100.00
50087;BME280;35967;50.718;7.050;2023-12-22T01:24:01;99504.44;;;5.03;100.00
50087;BME280;35967;50.718;7.050;2023-12-22T01:34:04;99553.59;;;5.15;100.00
50087;BME280;35967;50.718;7.050;2023-12-22T01:44:09;99537.38;;;5.17;100.00
50087;BME280;35967;50.718;7.050;2023-12-22T01:54:13;99517.63;;;5.27;100.00
50087;BME280;35967;50.718;7.050;2023-12-22T02:04:20;99500.53;;;5.32;100.00
50087;BME280;35967;50.718;7.050;2023-12-22T02:14:23;99537.69;;;5.46;100.00
50087;BME280;35967;50.718;7.050;2023-12-22T02:24:29;99529.91;;;5.52;100.00
50087;BME280;35967;50.718;7.050;2023-12-22T02:34:35;99525.81;;;5.45;100.00
50087;BME280;35967;50.718;7.050;2023-12-22T02:44:41;99525.66;;;5.52;100.00
50087;BME280;35967;50.718;7.050;2023-12-22T02:54:44;99511.81;;;5.63;100.00
50087;BME280;35967;50.718;7.050;2023-12-22T03:04:50;99493.38;;;5.91;100.00
50087;BME280;35967;50.718;7.050;2023-12-22T03:14:53;99502.38;;;6.09;100.00
50087;BME280;35967;50.718;7.050;2023-12-22T03:24:58;99501.97;;;6.27;100.00
50087;BME280;35967;50.718;7.050;2023-12-22T03:35:01;99503.50;;;6.35;100.00
50087;BME280;35967;50.718;7.050;2023-12-22T03:45:08;99525.44;;;6.43;100.00
50087;BME280;35967;50.718;7.050;2023-12-22T03:55:12;99519.31;;;6.51;100.00
50087;BME280;35967;50.718;7.050;2023-12-22T04:05:16;99550.31;;;6.37;100.00
50087;BME280;35967;50.718;7.050;2023-12-22T04:15:19;99569.06;;;5.96;100.00
50087;BME280;35967;50.718;7.050;2023-12-22T04:25:24;99552.00;;;5.97;100.00
50087;BME280;35967;50.718;7.050;2023-12-22T04:35:28;99547.13;;;5.86;100.00
50087;BME280;35967;50.718;7.050;2023-12-22T04:45:32;99544.63;;;5.83;100.00
50087;BME280;35967;50.718;7.050;2023-12-22T04:55:35;99542.59;;;5.97;100.00
50087;BME280;35967;50.718;7.050;2023-12-22T05:05:40;99537.31;;;6.08;100.00
50087;BME280;35967;50.718;7.050;2023-12-22T05:15:44;99571.88;;;6.62;100.00
50087;BME280;35967;50.718;7.050;2023-12-22T05:25:49;99566.53;;;6.72;100.00
50087;BME280;35967;50.718;7.050;2023-12-22T05:35:53;99585.59;;;6.96;100.00
50087;BME280;35967;50.718;7.050;2023-12-22T05:45:58;99585.34;;;7.05;100.00
50087;BME280;35967;50.718;7.050;2023-12-22T05:56:01;99591.84;;;7.17;100.00
50087;BME280;35967;50.718;7.050;2023-12-22T06:06:06;99561.59;;;7.33;96.96
50087;BME280;35967;50.718;7.050;2023-12-22T06:16:11;99592.38;;;7.30;97.43
50087;BME280;35967;50.718;7.050;2023-12-22T06:26:16;99622.28;;;7.30;100.00
50087;BME280;35967;50.718;7.050;2023-12-22T06:36:20;99608.06;;;7.18;100.00
50087;BME280;35967;50.718;7.050;2023-12-22T06:46:28;99614.13;;;7.14;100.00
50087;BME280;35967;50.718;7.050;2023-12-22T06:56:35;99614.28;;;7.09;100.00
50087;BME280;35967;50.718;7.050;2023-12-22T07:06:40;99650.94;;;6.72;100.00
50087;BME280;35967;50.718;7.050;2023-12-22T07:16:44;99631.41;;;6.30;100.00
50087;BME280;35967;50.718;7.050;2023-12-22T07:26:49;99638.28;;;6.26;100.00
50087;BME280;35967;50.718;7.050;2023-12-22T07:36:53;99638.25;;;6.28;100.00
50087;BME280;35967;50.718;7.050;2023-12-22T07:47:09;99633.00;;;6.36;100.00
50087;BME280;35967;50.718;7.050;2023-12-22T07:57:12;99622.63;;;6.42;100.00
50087;BME280;35967;50.718;7.050;2023-12-22T08:07:17;99634.00;;;6.66;100.00
50087;BME280;35967;50.718;7.050;2023-12-22T08:17:20;99610.09;;;7.05;100.00
50087;BME280;35967;50.718;7.050;2023-12-22T08:27:26;99604.06;;;7.07;100.00
50087;BME280;35967;50.718;7.050;2023-12-22T08:37:29;99626.31;;;7.38;100.00
50087;BME280;35967;50.718;7.050;2023-12-22T08:47:34;99632.66;;;7.58;100.00
50087;BME280;35967;50.718;7.050;2023-12-22T08:57:38;99624.16;;;7.56;100.00
50087;BME280;35967;50.718;7.050;2023-12-22T09:07:58;99616.19;;;7.67;100.00
50087;BME280;35967;50.718;7.050;2023-12-22T09:18:02;99624.59;;;7.72;100.00
50087;BME280;35967;50.718;7.050;2023-12-22T09:28:07;99618.44;;;7.79;100.00
50087;BME280;35967;50.718;7.050;2023-12-22T09:38:10;99597.63;;;7.90;100.00
50087;BME280;35967;50.718;7.050;2023-12-22T09:48:17;99563.81;;;8.07;100.00
50087;BME280;35967;50.718;7.050;2023-12-22T09:58:22;99566.06;;;8.18;100.00
50087;BME280;35967;50.718;7.050;2023-12-22T10:08:28;99565.91;;;8.23;100.00
50087;BME280;35967;50.718;7.050;2023-12-22T10:18:32;99552.22;;;8.24;100.00
50087;BME280;35967;50.718;7.050;2023-12-22T10:28:37;99540.16;;;8.27;100.00
50087;BME280;35967;50.718;7.050;2023-12-22T10:38:40;99539.88;;;8.08;100.00
50087;BME280;35967;50.718;7.050;2023-12-22T10:48:46;99541.50;;;8.11;100.00
50087;BME280;35967;50.718;7.050;2023-12-22T10:58:49;99533.44;;;7.95;100.00
50087;BME280;35967;50.718;7.050;2023-12-22T11:08:56;99514.75;;;7.91;100.00
50087;BME280;35967;50.718;7.050;2023-12-22T11:19:01;99522.31;;;7.96;100.00
50087;BME280;35967;50.718;7.050;2023-12-22T11:29:07;99510.53;;;8.18;100.00
50087;BME280;35967;50.718;7.050;2023-12-22T11:39:12;99500.38;;;8.42;100.00
50087;BME280;35967;50.718;7.050;2023-12-22T11:49:17;99476.63;;;8.64;100.00
50087;BME280;35967;50.718;7.050;2023-12-22T11:59:39;99494.91;;;8.80;100.00
50087;BME280;35967;50.718;7.050;2023-12-22T12:09:47;99492.72;;;8.94;100.00
50087;BME280;35967;50.718;7.050;2023-12-22T12:19:51;99494.66;;;9.13;100.00
50087;BME280;35967;50.718;7.050;2023-12-22T12:29:56;99475.44;;;9.23;100.00
50087;BME280;35967;50.718;7.050;2023-12-22T12:40:08;99475.19;;;9.31;100.00
50087;BME280;35967;50.718;7.050;2023-12-22T12:50:21;99467.34;;;9.34;100.00
50087;BME280;35967;50.718;7.050;2023-12-22T13:00:25;99475.97;;;9.33;100.00
50087;BME280;35967;50.718;7.050;2023-12-22T13:10:29;99478.53;;;9.33;100.00
50087;BME280;35967;50.718;7.050;2023-12-22T13:20:34;99457.22;;;9.06;100.00
50087;BME280;35967;50.718;7.050;2023-12-22T13:30:41;99469.81;;;9.13;100.00
50087;BME280;35967;50.718;7.050;2023-12-22T13:40:46;99471.09;;;9.25;100.00
50087;BME280;35967;50.718;7.050;2023-12-22T13:50:59;99473.28;;;9.36;100.00
50087;BME280;35967;50.718;7.050;2023-12-22T14:01:13;99463.06;;;9.58;100.00
50087;BME280;35967;50.718;7.050;2023-12-22T14:11:17;99484.00;;;9.47;100.00
50087;BME280;35967;50.718;7.050;2023-12-22T14:21:21;99497.84;;;9.43;100.00
50087;BME280;35967;50.718;7.050;2023-12-22T14:31:25;99490.03;;;9.46;100.00
50087;BME280;35967;50.718;7.050;2023-12-22T14:41:29;99503.59;;;9.50;100.00
50087;BME280;35967;50.718;7.050;2023-12-22T14:51:36;99517.41;;;9.47;100.00
50087;BME280;35967;50.718;7.050;2023-12-22T15:01:40;99524.78;;;9.33;100.00
50087;BME280;35967;50.718;7.050;2023-12-22T15:11:45;99534.72;;;9.17;100.00
50087;BME280;35967;50.718;7.050;2023-12-22T15:21:49;99554.25;;;8.96;100.00
50087;BME280;35967;50.718;7.050;2023-12-22T15:31:53;99569.28;;;8.81;100.00
50087;BME280;35967;50.718;7.050;2023-12-22T15:42:01;99590.69;;;8.80;100.00
50087;BME280;35967;50.718;7.050;2023-12-22T15:52:06;99570.94;;;8.82;100.00
50087;BME280;35967;50.718;7.050;2023-12-22T16:02:10;99581.94;;;8.86;100.00
50087;BME280;35967;50.718;7.050;2023-12-22T16:12:15;99588.78;;;8.86;100.00
50087;BME280;35967;50.718;7.050;2023-12-22T16:22:18;99586.16;;;8.89;100.00
50087;BME280;35967;50.718;7.050;2023-12-22T16:32:23;99592.97;;;8.90;100.00
50087;BME280;35967;50.718;7.050;2023-12-22T16:42:26;99575.94;;;8.87;100.00
50087;BME280;35967;50.718;7.050;2023-12-22T16:52:31;99605.09;;;8.84;100.00
50087;BME280;35967;50.718;7.050;2023-12-22T17:02:36;99612.09;;;8.79;100.00
50087;BME280;35967;50.718;7.050;2023-12-22T17:12:40;99615.66;;;8.75;100.00
50087;BME280;35967;50.718;7.050;2023-12-22T17:22:44;99624.09;;;8.79;100.00
50087;BME280;35967;50.718;7.050;2023-12-22T17:32:48;99645.44;;;8.81;100.00
50087;BME280;35967;50.718;7.050;2023-12-22T17:42:51;99624.56;;;8.92;100.00
50087;BME280;35967;50.718;7.050;2023-12-22T17:52:56;99646.44;;;9.02;100.00
50087;BME280;35967;50.718;7.050;2023-12-22T18:02:59;99650.50;;;9.09;100.00
50087;BME280;35967;50.718;7.050;2023-12-22T18:13:03;99672.53;;;9.17;100.00
50087;BME280;35967;50.718;7.050;2023-12-22T18:23:06;99679.91;;;9.26;100.00
50087;BME280;35967;50.718;7.050;2023-12-22T18:33:11;99671.16;;;9.33;100.00
50087;BME280;35967;50.718;7.050;2023-12-22T18:43:14;99695.63;;;9.43;100.00
50087;BME280;35967;50.718;7.050;2023-12-22T18:53:19;99699.19;;;9.39;100.00
50087;BME280;35967;50.718;7.050;2023-12-22T19:03:22;99703.78;;;9.29;100.00
50087;BME280;35967;50.718;7.050;2023-12-22T19:13:27;99710.19;;;9.16;100.00
50087;BME280;35967;50.718;7.050;2023-12-22T19:23:30;99712.63;;;9.21;100.00
50087;BME280;35967;50.718;7.050;2023-12-22T19:33:35;99714.84;;;9.31;100.00
50087;BME280;35967;50.718;7.050;2023-12-22T19:43:39;99749.81;;;9.36;100.00
50087;BME280;35967;50.718;7.050;2023-12-22T19:53:44;99752.34;;;9.37;100.00
50087;BME280;35967;50.718;7.050;2023-12-22T20:03:48;99764.25;;;9.40;100.00
50087;BME280;35967;50.718;7.050;2023-12-22T20:13:52;99776.66;;;9.54;100.00
50087;BME280;35967;50.718;7.050;2023-12-22T20:23:58;99810.25;;;9.47;100.00
50087;BME280;35967;50.718;7.050;2023-12-22T20:34:03;99804.38;;;9.42;98.69
50087;BME280;35967;50.718;7.050;2023-12-22T20:44:06;99830.28;;;9.36;99.45
50087;BME280;35967;50.718;7.050;2023-12-22T20:54:11;99850.88;;;9.35;99.85
50087;BME280;35967;50.718;7.050;2023-12-22T21:04:15;99862.84;;;9.34;98.47
50087;BME280;35967;50.718;7.050;2023-12-22T21:14:20;99887.03;;;9.27;99.68
50087;BME280;35967;50.718;7.050;2023-12-22T21:24:23;99879.31;;;9.28;100.00
50087;BME280;35967;50.718;7.050;2023-12-22T21:34:28;99902.72;;;9.18;100.00
50087;BME280;35967;50.718;7.050;2023-12-22T21:44:31;99900.50;;;9.05;100.00
50087;BME280;35967;50.718;7.050;2023-12-22T21:54:36;99905.22;;;9.21;100.00
50087;BME280;35967;50.718;7.050;2023-12-22T22:04:39;99912.28;;;9.42;97.66
50087;BME280;35967;50.718;7.050;2023-12-22T22:14:45;99934.78;;;9.34;97.63
50087;BME280;35967;50.718;7.050;2023-12-22T22:24:49;99969.47;;;9.49;95.89
50087;BME280;35967;50.718;7.050;2023-12-22T22:34:54;99977.47;;;9.38;96.30
50087;BME280;35967;50.718;7.050;2023-12-22T22:44:56;100081.63;;;7.62;100.00
50087;BME280;35967;50.718;7.050;2023-12-22T22:55:01;100102.94;;;7.15;100.00
50087;BME280;35967;50.718;7.050;2023-12-22T23:05:05;100134.66;;;7.06;100.00
50087;BME280;35967;50.718;7.050;2023-12-22T23:15:10;100136.72;;;6.84;100.00
50087;BME280;35967;50.718;7.050;2023-12-22T23:25:13;100145.91;;;6.94;100.00
50087;BME280;35967;50.718;7.050;2023-12-22T23:35:18;100140.03;;;6.89;100.00
50087;BME280;35967;50.718;7.050;2023-12-22T23:45:21;100159.50;;;6.98;100.00
50087;BME280;35967;50.718;7.050;2023-12-22T23:55:25;100188.50;;;7.00;100.00
